createdAt,value
2023-05-21T00:01:54.610Z,12.32
2023-05-21T00:04:21.028Z,10.90
2023-05-21T00:06:47.451Z,10.13
2023-05-21T00:09:13.892Z,11.55
2023-05-21T00:11:40.331Z,10.43
2023-05-21T00:14:06.720Z,8.93
2023-05-21T00:16:33.137Z,8.93
2023-05-21T00:18:59.572Z,8.70
2023-05-21T00:21:26.054Z,11.07
2023-05-21T00:23:53.322Z,11.82
2023-05-21T00:26:21.085Z,11.90
2023-05-21T00:28:47.676Z,8.52
2023-05-21T00:31:14.123Z,9.80
2023-05-21T00:33:40.541Z,10.25
2023-05-21T00:36:07.222Z,8.32
2023-05-21T00:38:33.619Z,10.35
2023-05-21T00:41:02.860Z,9.73
2023-05-21T00:43:29.360Z,12.38
2023-05-21T00:45:55.957Z,8.52
2023-05-21T00:48:23.572Z,8.90
2023-05-21T00:50:50.351Z,10.35
2023-05-21T00:53:17.772Z,10.27
2023-05-21T00:55:44.264Z,12.70
2023-05-21T00:58:10.661Z,8.98
2023-05-21T01:00:37.134Z,12.52
2023-05-21T01:03:04.698Z,10.43
2023-05-21T01:05:31.177Z,10.82
2023-05-21T01:07:58.628Z,10.32
2023-05-21T01:10:27.421Z,11.00
2023-05-21T01:12:56.198Z,11.13
2023-05-21T01:15:22.999Z,10.85
2023-05-21T01:17:49.697Z,9.52
2023-05-21T01:20:18.135Z,10.00
2023-05-21T01:22:55.470Z,12.38
2023-05-21T01:25:25.068Z,10.13
2023-05-21T01:27:51.997Z,11.07
2023-05-21T01:30:20.346Z,12.93
2023-05-21T01:33:14.150Z,11.77
2023-05-21T01:35:56.562Z,11.43
2023-05-21T01:38:29.384Z,12.40
2023-05-21T01:41:04.271Z,12.40
2023-05-21T01:43:39.539Z,11.23
2023-05-21T01:46:09.639Z,12.98
2023-05-21T01:48:36.749Z,10.45
2023-05-21T01:53:30.361Z,10.73
2023-05-21T01:55:56.898Z,12.65
2023-05-21T01:58:23.409Z,12.80
2023-05-21T02:00:49.912Z,10.63
2023-05-21T02:03:17.086Z,11.13
2023-05-21T02:05:43.660Z,14.98
2023-05-21T02:08:10.085Z,13.57
2023-05-21T02:10:36.939Z,13.23
2023-05-21T02:13:03.377Z,10.63
2023-05-21T02:15:29.768Z,11.73
2023-05-21T02:17:56.269Z,13.50
2023-05-21T02:20:22.739Z,13.27
2023-05-21T02:22:49.478Z,16.83
2023-05-21T02:25:18.909Z,13.75
2023-05-21T02:27:45.656Z,11.60
2023-05-21T02:30:14.203Z,14.35
2023-05-21T02:32:41.214Z,13.75
2023-05-21T02:37:35.407Z,12.18
2023-05-21T02:40:04.123Z,11.57
2023-05-21T02:42:30.598Z,14.05
2023-05-21T02:44:57.011Z,15.52
2023-05-21T02:47:23.459Z,13.45
2023-05-21T02:49:50.845Z,15.18
2023-05-21T02:52:18.239Z,16.77
2023-05-21T02:54:45.830Z,14.98
2023-05-21T02:57:13.819Z,14.00
2023-05-21T02:59:40.693Z,12.02
2023-05-21T03:02:08.112Z,17.17
2023-05-21T03:04:41.291Z,14.20
2023-05-21T03:07:08.480Z,15.80
2023-05-21T03:09:35.247Z,15.55
2023-05-21T03:12:01.807Z,15.88
2023-05-21T03:14:28.246Z,16.48
2023-05-21T03:16:54.817Z,15.50
2023-05-21T03:19:21.676Z,17.60
2023-05-21T03:24:15.149Z,12.85
2023-05-21T03:26:41.743Z,14.52
2023-05-21T03:29:08.288Z,16.25
2023-05-21T03:31:34.872Z,16.05
2023-05-21T03:34:02.908Z,14.15
2023-05-21T03:36:29.505Z,14.00
2023-05-21T03:38:56.152Z,13.15
2023-05-21T03:41:23.949Z,16.25
2023-05-21T03:43:50.559Z,15.73
2023-05-21T03:46:17.318Z,14.38
2023-05-21T03:48:43.834Z,17.20
2023-05-21T03:51:10.355Z,13.60
2023-05-21T03:53:37.214Z,15.45
2023-05-21T03:56:03.890Z,13.27
2023-05-21T03:58:31.268Z,16.52
2023-05-21T04:00:58.288Z,16.27
2023-05-21T04:05:51.620Z,14.23
2023-05-21T04:08:18.407Z,15.65
2023-05-21T04:10:45.323Z,13.98
2023-05-21T04:15:38.919Z,12.82
2023-05-21T04:18:05.756Z,17.15
2023-05-21T04:20:32.780Z,15.45
2023-05-21T04:22:59.566Z,15.73
2023-05-21T04:25:26.380Z,15.38
2023-05-21T04:27:52.928Z,18.05
2023-05-21T04:30:19.401Z,16.02
2023-05-21T04:32:46.386Z,14.43
2023-05-21T04:37:39.623Z,14.30
2023-05-21T04:40:07.017Z,17.13
2023-05-21T04:42:33.649Z,15.60
2023-05-21T04:45:00.193Z,16.42
2023-05-21T04:47:26.748Z,16.00
2023-05-21T04:49:53.615Z,16.52
2023-05-21T04:52:20.463Z,17.55
2023-05-21T04:54:46.957Z,18.55
2023-05-21T04:57:14.722Z,16.73
2023-05-21T04:59:41.538Z,14.77
2023-05-21T05:02:08.091Z,17.45
2023-05-21T05:04:34.582Z,16.02
2023-05-21T05:07:01.073Z,15.77
2023-05-21T05:09:27.664Z,17.75
2023-05-21T05:11:55.553Z,16.33
2023-05-21T05:14:22.401Z,16.73
2023-05-21T05:19:16.230Z,14.35
2023-05-21T05:21:43.032Z,15.88
2023-05-21T05:24:09.874Z,15.20
2023-05-21T05:26:36.747Z,14.13
2023-05-21T05:31:30.302Z,13.50
2023-05-21T05:33:57.239Z,12.88
2023-05-21T05:38:50.318Z,13.18
2023-05-21T05:41:17.409Z,16.92
2023-05-21T05:43:43.987Z,17.73
2023-05-21T05:46:10.664Z,16.38
2023-05-21T05:48:37.309Z,14.90
2023-05-21T05:51:04.323Z,14.05
2023-05-21T05:53:30.797Z,15.55
2023-05-21T05:55:57.646Z,17.30
2023-05-21T06:00:50.642Z,13.60
2023-05-21T06:03:19.152Z,12.45
2023-05-21T06:05:47.531Z,13.70
2023-05-21T06:08:14.146Z,14.65
2023-05-21T06:10:41.009Z,16.80
2023-05-21T06:13:09.906Z,14.07
2023-05-21T06:15:36.902Z,12.32
2023-05-21T06:18:03.794Z,13.65
2023-05-21T06:20:30.331Z,13.70
2023-05-21T06:22:57.060Z,13.85
2023-05-21T06:25:23.799Z,13.52
2023-05-21T06:27:50.630Z,13.65
2023-05-21T06:32:44.100Z,13.50
2023-05-21T06:37:38.412Z,13.13
2023-05-21T06:40:05.536Z,14.18
2023-05-21T06:42:32.266Z,12.15
2023-05-21T06:44:59.164Z,12.07
2023-05-21T06:47:27.023Z,13.32
2023-05-21T06:49:53.794Z,13.60
2023-05-21T06:52:20.709Z,17.02
2023-05-21T06:57:15.220Z,12.88
2023-05-21T06:59:41.978Z,14.15
2023-05-21T07:04:35.336Z,12.85
2023-05-21T07:07:02.748Z,14.23
2023-05-21T07:09:29.673Z,12.18
2023-05-21T07:11:56.248Z,12.95
2023-05-21T07:14:25.650Z,10.95
2023-05-21T07:16:52.223Z,14.02
2023-05-21T07:19:20.601Z,12.88
2023-05-21T07:21:47.215Z,11.05
2023-05-21T07:24:13.714Z,13.07
2023-05-21T07:26:40.732Z,12.48
2023-05-21T07:29:07.311Z,11.63
2023-05-21T07:31:34.116Z,12.27
2023-05-21T07:34:01.127Z,9.75
2023-05-21T07:36:27.644Z,12.63
2023-05-21T07:38:54.143Z,11.20
2023-05-21T07:41:20.842Z,9.52
2023-05-21T07:43:47.815Z,11.07
2023-05-21T07:46:14.608Z,10.27
2023-05-21T07:48:41.370Z,13.18
2023-05-21T07:53:34.448Z,11.90
2023-05-21T07:56:01.049Z,12.15
2023-05-21T07:58:27.901Z,12.20
2023-05-21T08:00:54.430Z,11.50
2023-05-21T08:03:21.261Z,11.02
2023-05-21T08:05:48.594Z,11.68
2023-05-21T08:08:19.660Z,11.95
2023-05-21T08:10:47.015Z,10.77
2023-05-21T08:13:15.920Z,8.75
2023-05-21T08:15:42.625Z,10.07
2023-05-21T08:20:35.740Z,10.63
2023-05-21T08:23:02.550Z,9.60
2023-05-21T08:25:29.469Z,8.32
2023-05-21T08:27:56.236Z,9.73
2023-05-21T08:32:49.976Z,9.55
2023-05-21T08:35:16.875Z,9.70
2023-05-21T08:37:43.572Z,9.57
2023-05-21T08:40:13.664Z,7.90
2023-05-21T08:42:51.599Z,8.50
2023-05-21T08:45:22.964Z,9.95
2023-05-21T08:47:56.880Z,10.05
2023-05-21T08:50:27.030Z,8.95
2023-05-21T08:52:54.321Z,9.70
2023-05-21T08:55:21.470Z,8.43
2023-05-21T08:57:48.808Z,8.77
2023-05-21T09:00:16.049Z,7.43
2023-05-21T09:02:42.697Z,9.18
2023-05-21T09:05:10.058Z,7.85
2023-05-21T09:07:47.090Z,7.20
2023-05-21T09:10:14.556Z,8.18
2023-05-21T09:12:41.369Z,9.00
2023-05-21T09:15:10.623Z,7.82
2023-05-21T09:17:37.248Z,8.50
2023-05-21T09:22:46.217Z,9.45
2023-05-21T09:25:16.159Z,8.77
2023-05-21T09:27:43.215Z,8.27
2023-05-21T09:30:14.504Z,9.07
2023-05-21T09:32:41.778Z,7.78
2023-05-21T09:35:13.455Z,8.43
2023-05-21T09:37:51.407Z,7.78
2023-05-21T09:40:20.048Z,9.07
2023-05-21T09:42:47.601Z,7.82
2023-05-21T09:45:27.902Z,7.07
2023-05-21T09:47:56.713Z,7.43
2023-05-21T09:50:27.295Z,7.10
2023-05-21T09:52:54.837Z,6.93
2023-05-21T09:55:25.829Z,8.90
2023-05-21T09:57:54.809Z,7.05
2023-05-21T10:00:23.894Z,9.50
2023-05-21T10:02:56.890Z,7.65
2023-05-21T10:05:27.351Z,7.78
2023-05-21T10:08:04.614Z,8.50
2023-05-21T10:10:32.206Z,7.72
2023-05-21T10:13:04.124Z,8.25
2023-05-21T10:15:36.062Z,8.20
2023-05-21T10:18:03.370Z,7.47
2023-05-21T10:20:30.268Z,10.02
2023-05-21T10:22:58.863Z,6.38
2023-05-21T10:25:26.699Z,7.07
2023-05-21T10:27:55.816Z,6.95
2023-05-21T10:30:24.068Z,6.78
2023-05-21T10:32:52.105Z,6.35
2023-05-21T10:35:18.850Z,6.72
2023-05-21T10:40:13.122Z,8.10
2023-05-21T10:42:52.539Z,8.50
2023-05-21T10:45:43.818Z,6.53
2023-05-21T10:48:33.380Z,6.55
2023-05-21T10:51:14.928Z,6.00
2023-05-21T10:53:55.009Z,5.53
2023-05-21T10:56:46.581Z,7.97
2023-05-21T10:59:32.241Z,5.78
2023-05-21T11:01:59.242Z,9.32
2023-05-21T11:04:30.273Z,10.93
2023-05-21T11:06:59.111Z,6.95
2023-05-21T11:09:27.107Z,5.38
2023-05-21T11:11:58.745Z,6.05
2023-05-21T11:14:36.337Z,5.63
2023-05-21T11:17:09.538Z,6.57
2023-05-21T11:19:45.861Z,5.05
2023-05-21T11:22:25.615Z,6.95
2023-05-21T11:24:55.100Z,5.95
2023-05-21T11:27:39.719Z,5.32
2023-05-21T11:30:07.819Z,5.63
2023-05-21T11:33:09.501Z,5.25
2023-05-21T11:35:57.842Z,5.65
2023-05-21T11:38:28.379Z,5.53
2023-05-21T11:40:55.289Z,7.03
2023-05-21T11:43:22.514Z,6.90
2023-05-21T11:45:52.216Z,6.22
2023-05-21T11:48:27.677Z,7.07
2023-05-21T11:50:55.007Z,5.13
2023-05-21T11:55:49.082Z,6.15
2023-05-21T11:58:18.678Z,5.85
2023-05-21T12:00:45.506Z,5.22
2023-05-21T12:03:14.530Z,4.88
2023-05-21T12:05:48.884Z,4.97
2023-05-21T12:08:25.099Z,6.22
2023-05-21T12:11:00.993Z,6.90
2023-05-21T12:13:28.336Z,5.63
2023-05-21T12:15:56.257Z,5.30
2023-05-21T12:18:22.880Z,5.75
2023-05-21T12:23:25.628Z,5.35
2023-05-21T12:25:54.245Z,5.78
2023-05-21T12:28:22.204Z,5.00
2023-05-21T12:30:48.704Z,6.20
2023-05-21T12:33:15.263Z,6.30
2023-05-21T12:35:46.566Z,6.18
2023-05-21T12:38:13.531Z,7.72
2023-05-21T12:40:43.174Z,4.55
2023-05-21T12:43:09.778Z,5.57
2023-05-21T12:45:37.732Z,6.70
2023-05-21T12:48:04.690Z,5.28
2023-05-21T12:50:32.965Z,5.35
2023-05-21T12:52:59.873Z,5.75
2023-05-21T12:55:26.460Z,6.55
2023-05-21T12:58:04.175Z,5.50
2023-05-21T13:00:32.501Z,5.53
2023-05-21T13:02:59.395Z,6.05
2023-05-21T13:05:26.050Z,5.45
2023-05-21T13:07:52.580Z,6.47
2023-05-21T13:10:19.217Z,6.57
2023-05-21T13:12:46.564Z,5.93
2023-05-21T13:15:14.557Z,4.90
2023-05-21T13:17:41.445Z,6.90
2023-05-21T13:20:13.403Z,5.03
2023-05-21T13:22:50.896Z,5.13
2023-05-21T13:25:19.505Z,6.03
2023-05-21T13:27:47.172Z,5.50
2023-05-21T13:30:13.991Z,6.43
2023-05-21T13:32:42.199Z,6.20
2023-05-21T13:35:10.189Z,4.75
2023-05-21T13:37:36.924Z,6.68
2023-05-21T13:40:05.980Z,5.53
2023-05-21T13:42:34.172Z,4.68
2023-05-21T13:45:01.268Z,5.63
2023-05-21T13:47:27.869Z,6.88
2023-05-21T13:49:54.624Z,5.85
2023-05-21T13:52:21.448Z,4.75
2023-05-21T13:54:48.156Z,5.18
2023-05-21T13:57:15.243Z,5.82
2023-05-21T13:59:42.199Z,5.38
2023-05-21T14:02:10.135Z,6.18
2023-05-21T14:04:39.778Z,5.38
2023-05-21T14:07:07.175Z,5.72
2023-05-21T14:09:34.760Z,5.00
2023-05-21T14:12:06.517Z,7.15
2023-05-21T14:14:33.714Z,4.68
2023-05-21T14:17:00.368Z,5.28
2023-05-21T14:19:27.031Z,4.70
2023-05-21T14:21:53.622Z,4.22
2023-05-21T14:24:20.216Z,5.53
2023-05-21T14:26:46.689Z,5.28
2023-05-21T14:31:39.961Z,5.45
2023-05-21T14:34:07.853Z,5.15
2023-05-21T14:36:35.041Z,5.55
2023-05-21T14:39:01.925Z,5.15
2023-05-21T14:41:29.752Z,4.28
2023-05-21T14:43:56.650Z,4.63
2023-05-21T14:46:23.252Z,6.40
2023-05-21T14:48:50.295Z,5.80
2023-05-21T14:51:16.817Z,4.60
2023-05-21T14:56:10.211Z,4.43
2023-05-21T14:58:36.772Z,4.60
2023-05-21T15:01:04.902Z,5.47
2023-05-21T15:03:31.919Z,4.75
2023-05-21T15:05:58.871Z,5.50
2023-05-21T15:08:25.715Z,4.38
2023-05-21T15:10:55.560Z,4.68
2023-05-21T15:13:22.787Z,4.80
2023-05-21T15:15:49.893Z,4.25
2023-05-21T15:18:16.707Z,3.70
2023-05-21T15:20:43.583Z,4.90
2023-05-21T15:23:16.895Z,4.22
2023-05-21T15:25:45.343Z,5.85
2023-05-21T15:28:12.238Z,5.57
2023-05-21T15:30:39.296Z,4.22
2023-05-21T15:33:06.077Z,5.15
2023-05-21T15:35:32.877Z,6.80
2023-05-21T15:37:59.747Z,5.75
2023-05-21T15:40:27.268Z,5.82
2023-05-21T15:42:54.205Z,4.55
2023-05-21T15:45:21.217Z,4.97
2023-05-21T15:47:48.984Z,4.32
2023-05-21T15:50:19.204Z,3.47
2023-05-21T15:52:45.806Z,4.82
2023-05-21T15:55:12.556Z,4.47
2023-05-21T15:57:39.360Z,5.03
2023-05-21T16:00:07.254Z,6.43
2023-05-21T16:02:34.076Z,4.18
2023-05-21T16:05:00.888Z,4.00
2023-05-21T16:07:29.020Z,4.65
2023-05-21T16:09:55.737Z,4.32
2023-05-21T16:12:22.362Z,4.78
2023-05-21T16:17:15.747Z,5.45
2023-05-21T16:19:42.625Z,5.25
2023-05-21T16:22:11.412Z,7.30
2023-05-21T16:24:38.404Z,4.35
2023-05-21T16:27:05.183Z,4.25
2023-05-21T16:29:32.070Z,6.25
2023-05-21T16:32:01.032Z,4.43
2023-05-21T16:34:27.589Z,7.20
2023-05-21T16:39:20.456Z,6.15
2023-05-21T16:44:15.086Z,4.68
2023-05-21T16:46:42.149Z,3.47
2023-05-21T16:49:08.950Z,5.78
2023-05-21T16:51:35.764Z,5.10
2023-05-21T16:54:02.762Z,7.32
2023-05-21T16:56:29.314Z,4.97
2023-05-21T16:58:56.042Z,4.43
2023-05-21T17:01:22.888Z,3.95
2023-05-21T17:03:50.491Z,4.82
2023-05-21T17:06:17.534Z,4.43
2023-05-21T17:08:44.040Z,4.82
2023-05-21T17:13:37.101Z,4.28
2023-05-21T17:18:30.376Z,6.70
2023-05-21T17:23:23.943Z,5.35
2023-05-21T17:25:51.075Z,6.05
2023-05-21T17:28:17.907Z,5.75
2023-05-21T17:30:44.553Z,4.40
2023-05-21T17:33:11.104Z,3.65
2023-05-21T17:38:04.883Z,4.85
2023-05-21T17:40:31.824Z,9.20
2023-05-21T17:42:58.253Z,4.50
2023-05-21T17:45:24.789Z,3.40
2023-05-21T17:47:52.088Z,6.32
2023-05-21T17:50:18.678Z,7.90
2023-05-21T17:52:45.418Z,4.45
2023-05-21T17:55:14.193Z,3.90
2023-05-21T17:57:40.818Z,4.78
2023-05-21T18:00:08.501Z,3.70
2023-05-21T18:02:38.493Z,4.63
2023-05-21T18:05:06.423Z,5.13
2023-05-21T18:07:32.917Z,5.18
2023-05-21T18:09:59.548Z,4.65
2023-05-21T18:12:26.094Z,3.90
2023-05-21T18:14:52.721Z,4.38
2023-05-21T18:17:19.491Z,4.88
2023-05-21T18:19:47.103Z,3.65
2023-05-21T18:22:16.819Z,4.70
2023-05-21T18:24:43.666Z,4.25
2023-05-21T18:27:11.740Z,3.50
2023-05-21T18:32:05.170Z,4.22
2023-05-21T18:34:33.302Z,4.00
2023-05-21T18:36:59.819Z,4.88
2023-05-21T18:39:26.374Z,4.82
2023-05-21T18:42:01.596Z,5.40
2023-05-21T18:44:32.330Z,4.53
2023-05-21T18:46:59.000Z,3.85
2023-05-21T18:51:53.209Z,4.50
2023-05-21T18:54:21.404Z,3.70
2023-05-21T18:56:48.243Z,4.60
2023-05-21T18:59:14.738Z,4.93
2023-05-21T19:01:41.297Z,3.50
2023-05-21T19:04:08.362Z,5.00
2023-05-21T19:06:34.841Z,4.40
2023-05-21T19:09:01.483Z,4.90
2023-05-21T19:11:28.488Z,4.18
2023-05-21T19:13:55.199Z,4.95
2023-05-21T19:18:52.067Z,5.28
2023-05-21T19:21:18.773Z,4.25
2023-05-21T19:23:53.352Z,4.82
2023-05-21T19:26:21.250Z,4.40
2023-05-21T19:28:47.770Z,3.92
2023-05-21T19:31:14.291Z,5.10
2023-05-21T19:33:41.119Z,4.60
2023-05-21T19:36:07.705Z,3.80
2023-05-21T19:38:35.603Z,3.95
2023-05-21T19:41:03.416Z,3.92
2023-05-21T19:43:32.354Z,4.32
2023-05-21T19:45:59.243Z,6.25
2023-05-21T19:48:25.771Z,5.88
2023-05-21T19:50:52.348Z,5.70
2023-05-21T19:53:20.497Z,4.68
2023-05-21T19:55:47.449Z,5.50
2023-05-21T19:58:13.978Z,5.32
2023-05-21T20:00:40.491Z,6.03
2023-05-21T20:03:08.431Z,5.47
2023-05-21T20:05:35.225Z,4.38
2023-05-21T20:10:33.678Z,4.45
2023-05-21T20:13:00.247Z,4.40
2023-05-21T20:15:26.935Z,5.78
2023-05-21T20:17:54.439Z,6.40
2023-05-21T20:20:22.160Z,4.20
2023-05-21T20:22:49.723Z,4.40
2023-05-21T20:25:16.485Z,5.22
2023-05-21T20:30:09.822Z,5.22
2023-05-21T20:32:38.257Z,5.50
2023-05-21T20:35:07.135Z,4.57
2023-05-21T20:37:34.049Z,4.38
2023-05-21T20:40:00.983Z,5.05
2023-05-21T20:42:29.438Z,7.20
2023-05-21T20:44:56.082Z,5.80
2023-05-21T20:47:22.682Z,4.80
2023-05-21T20:49:49.692Z,4.55
2023-05-21T20:52:16.485Z,4.70
2023-05-21T20:54:43.090Z,4.22
2023-05-21T20:57:10.212Z,5.57
2023-05-21T20:59:36.987Z,3.65
2023-05-21T21:04:30.182Z,5.35
2023-05-21T21:09:22.987Z,6.05
2023-05-21T21:11:49.689Z,4.85
2023-05-21T21:14:16.184Z,5.00
2023-05-21T21:16:43.000Z,5.43
2023-05-21T21:19:12.227Z,4.07
2023-05-21T21:21:39.766Z,3.78
2023-05-21T21:24:06.863Z,4.60
2023-05-21T21:26:34.366Z,5.47
2023-05-21T21:29:02.338Z,6.40
2023-05-21T21:31:29.974Z,5.75
2023-05-21T21:33:56.475Z,5.18
2023-05-21T21:36:22.996Z,4.18
2023-05-21T21:38:49.707Z,6.97
2023-05-21T21:41:16.272Z,4.57
2023-05-21T21:43:46.077Z,4.22
2023-05-21T21:46:12.613Z,4.13
2023-05-21T21:48:41.383Z,5.03
2023-05-21T21:51:07.934Z,5.90
2023-05-21T21:53:34.680Z,4.70
2023-05-21T21:56:01.157Z,3.88
2023-05-21T21:58:29.386Z,4.63
2023-05-21T22:00:56.266Z,3.88
2023-05-21T22:03:22.865Z,4.90
2023-05-21T22:05:49.628Z,4.53
2023-05-21T22:10:43.936Z,3.95
2023-05-21T22:13:10.420Z,4.30
2023-05-21T22:15:39.290Z,4.25
2023-05-21T22:18:06.513Z,3.92
2023-05-21T22:20:33.049Z,5.80
2023-05-21T22:23:00.051Z,5.03
2023-05-21T22:25:26.850Z,4.03
2023-05-21T22:27:54.290Z,4.50
2023-05-21T22:30:21.906Z,4.10
2023-05-21T22:32:53.595Z,4.75
2023-05-21T22:35:20.050Z,3.63
2023-05-21T22:37:46.561Z,3.50
2023-05-21T22:40:13.188Z,3.72
2023-05-21T22:42:40.171Z,4.80
2023-05-21T22:45:07.186Z,3.63
2023-05-21T22:47:34.053Z,6.13
2023-05-21T22:50:00.865Z,4.72
2023-05-21T22:54:55.728Z,4.88
2023-05-21T22:57:22.279Z,4.60
2023-05-21T22:59:50.030Z,3.25
2023-05-21T23:02:16.895Z,4.65
2023-05-21T23:04:44.623Z,5.10
2023-05-21T23:07:11.846Z,4.25
2023-05-21T23:09:38.395Z,3.80
2023-05-21T23:12:05.360Z,4.65
2023-05-21T23:14:31.945Z,3.88
2023-05-21T23:16:58.464Z,3.53
2023-05-21T23:19:25.003Z,3.47
2023-05-21T23:21:51.759Z,3.72
2023-05-21T23:26:45.217Z,4.25
2023-05-21T23:31:40.585Z,3.28
2023-05-21T23:34:07.172Z,3.38
2023-05-21T23:36:35.733Z,4.53
2023-05-21T23:39:02.466Z,4.10
2023-05-21T23:41:29.136Z,4.20
2023-05-21T23:43:55.565Z,3.47
2023-05-21T23:46:22.447Z,3.63
2023-05-21T23:48:49.185Z,3.40
2023-05-21T23:51:16.004Z,3.90
2023-05-21T23:53:42.552Z,4.75
2023-05-21T23:56:10.084Z,4.13
2023-05-21T23:58:36.598Z,3.95
